Terminal Aerodrome Forecast
Issued by NWS

Home | Current Version | Previous Version | Text Only | Print | Product List | Glossary On
Versions: 1 2 3 4 5 6 7 8 9 10 11 12 13 14 15 16 17 18 19 20
000
FTUS43 KAPX 221740
TAFTVC
TAF
KTVC 221740Z 2218/2318 01006KT P6SM FEW035
     FM222000 35007KT P6SM FEW200
     FM230000 VRB03KT P6SM FEW250
     FM230800 00000KT P6SM FEW250
     FM231500 30005KT P6SM FEW250=

USA.gov is the U.S. government's official web portal to all federal, state and local government web resources and services.